createdAt,value
2022-10-11T00:02:52.166Z,0.22
2022-10-11T00:05:53.708Z,0.25
2022-10-11T00:08:55.140Z,0.17
2022-10-11T00:14:58.092Z,0.10
2022-10-11T00:21:11.204Z,0.20
2022-10-11T00:24:12.976Z,0.20
2022-10-11T00:27:14.697Z,0.30
2022-10-11T00:30:16.327Z,0.20
2022-10-11T00:33:18.351Z,0.20
2022-10-11T00:36:20.160Z,0.17
2022-10-11T00:39:21.686Z,0.20
2022-10-11T00:42:23.872Z,0.20
2022-10-11T00:45:48.005Z,0.25
2022-10-11T00:48:55.975Z,0.10
2022-10-11T00:52:02.331Z,0.20
2022-10-11T00:55:07.989Z,0.20
2022-10-11T00:58:11.832Z,0.20
2022-10-11T01:01:13.590Z,0.22
2022-10-11T01:04:15.614Z,0.20
2022-10-11T01:07:19.309Z,0.22
2022-10-11T01:10:21.897Z,0.30
2022-10-11T01:13:34.926Z,0.30
2022-10-11T01:16:42.142Z,0.30
2022-10-11T01:19:58.873Z,0.20
2022-10-11T01:23:30.219Z,0.30
2022-10-11T01:26:58.530Z,0.00
2022-10-11T01:33:32.244Z,0.20
2022-10-11T01:36:38.965Z,0.20
2022-10-11T01:39:46.586Z,0.17
2022-10-11T01:42:48.829Z,0.10
2022-10-11T01:45:51.769Z,0.50
2022-10-11T01:48:56.740Z,0.28
2022-10-11T01:52:04.212Z,0.20
2022-10-11T01:55:18.363Z,0.20
2022-10-11T01:58:32.800Z,0.20
2022-10-11T02:01:47.641Z,0.20
2022-10-11T02:04:54.947Z,0.35
2022-10-11T02:08:04.897Z,0.20
2022-10-11T02:11:11.068Z,0.20
2022-10-11T02:14:16.992Z,0.10
2022-10-11T02:17:21.382Z,0.20
2022-10-11T02:20:25.763Z,0.10
2022-10-11T02:23:32.437Z,0.20
2022-10-11T02:26:36.075Z,0.20
2022-10-11T02:29:44.008Z,0.30
2022-10-11T02:32:47.647Z,0.20
2022-10-11T02:35:55.580Z,0.35
2022-10-11T02:39:03.012Z,0.20
2022-10-11T02:42:10.322Z,0.28
2022-10-11T02:45:16.793Z,0.20
2022-10-11T02:48:18.778Z,0.20
2022-10-11T02:51:20.836Z,0.20
2022-10-11T02:54:22.536Z,0.20
2022-10-11T02:57:23.957Z,0.20
2022-10-11T03:03:26.969Z,0.20
2022-10-11T03:06:32.053Z,0.17
2022-10-11T03:09:33.608Z,0.20
2022-10-11T03:12:35.025Z,0.32
2022-10-11T03:18:37.680Z,0.20
2022-10-11T03:24:40.943Z,0.20
2022-10-11T03:30:49.036Z,0.25
2022-10-11T03:33:50.687Z,0.10
2022-10-11T03:36:52.913Z,0.17
2022-10-11T03:39:54.361Z,0.20
2022-10-11T03:45:57.478Z,0.08
2022-10-11T03:52:01.151Z,0.10
2022-10-11T03:55:03.022Z,0.20
2022-10-11T03:58:04.572Z,0.25
2022-10-11T04:01:06.104Z,0.20
2022-10-11T04:04:10.825Z,0.10
2022-10-11T04:07:12.929Z,0.30
2022-10-11T04:10:14.387Z,0.30
2022-10-11T04:16:17.070Z,0.20
2022-10-11T04:22:20.582Z,0.20
2022-10-11T04:25:22.043Z,0.20
2022-10-11T04:31:27.957Z,0.10
2022-10-11T04:34:29.540Z,0.13
2022-10-11T04:37:32.413Z,0.20
2022-10-11T04:40:33.910Z,0.10
2022-10-11T04:46:36.873Z,0.13
2022-10-11T04:52:40.226Z,0.30
2022-10-11T04:55:41.676Z,0.20
2022-10-11T05:01:44.731Z,0.20
2022-10-11T05:04:46.482Z,0.10
2022-10-11T05:07:48.581Z,0.20
2022-10-11T05:10:57.652Z,0.28
2022-10-11T05:13:59.149Z,0.20
2022-10-11T05:17:00.767Z,0.25
2022-10-11T05:20:02.255Z,0.13
2022-10-11T05:26:05.858Z,0.20
2022-10-11T05:29:07.575Z,0.30
2022-10-11T05:35:10.385Z,0.10
2022-10-11T05:41:14.985Z,0.13
2022-10-11T05:44:16.423Z,0.20
2022-10-11T05:50:24.010Z,0.35
2022-10-11T05:53:26.843Z,0.20
2022-10-11T05:56:28.562Z,0.30
2022-10-11T05:59:30.291Z,0.20
2022-10-11T06:02:33.444Z,0.30
2022-10-11T06:05:35.725Z,0.20
2022-10-11T06:08:37.928Z,0.20
2022-10-11T06:11:40.539Z,0.20
2022-10-11T06:14:42.290Z,0.20
2022-10-11T06:17:44.302Z,0.30
2022-10-11T06:20:46.470Z,0.50
2022-10-11T06:23:50.049Z,0.28
2022-10-11T06:26:56.895Z,0.20
2022-10-11T06:29:59.436Z,0.25
2022-10-11T06:33:04.637Z,0.38
2022-10-11T06:36:10.178Z,0.43
2022-10-11T06:39:12.329Z,0.30
2022-10-11T06:42:13.869Z,0.20
2022-10-11T06:48:16.873Z,0.22
2022-10-11T06:51:20.443Z,0.30
2022-10-11T06:54:38.301Z,0.30
2022-10-11T06:57:42.756Z,0.20
2022-10-11T07:00:44.452Z,0.28
2022-10-11T07:03:46.580Z,0.20
2022-10-11T07:06:48.149Z,0.20
2022-10-11T07:09:50.305Z,0.32
2022-10-11T07:12:53.244Z,0.20
2022-10-11T07:15:55.165Z,0.30
2022-10-11T07:19:00.465Z,0.20
2022-10-11T07:22:02.340Z,0.20
2022-10-11T07:28:06.666Z,0.30
2022-10-11T07:31:12.652Z,0.30
2022-10-11T07:34:15.171Z,0.40
2022-10-11T07:37:16.692Z,0.30
2022-10-11T07:43:20.475Z,0.70
2022-10-11T07:46:22.926Z,0.17
2022-10-11T07:49:24.397Z,0.30
2022-10-11T07:55:30.882Z,0.32
2022-10-11T07:58:32.498Z,0.32
2022-10-11T08:01:34.192Z,0.30
2022-10-11T08:04:35.927Z,0.40
2022-10-11T08:07:37.390Z,0.28
2022-10-11T08:10:49.003Z,0.60
2022-10-11T08:13:51.420Z,0.30
2022-10-11T08:16:54.207Z,0.30
2022-10-11T08:23:02.756Z,0.20
2022-10-11T08:26:09.040Z,0.20
2022-10-11T08:33:36.528Z,0.25
2022-10-11T08:37:01.733Z,0.30
2022-10-11T08:40:06.896Z,0.22
2022-10-11T08:43:18.122Z,0.30
2022-10-11T08:46:25.431Z,0.43
2022-10-11T08:49:31.270Z,0.20
2022-10-11T08:52:44.083Z,0.20
2022-10-11T08:55:50.144Z,0.20
2022-10-11T08:58:56.345Z,0.25
2022-10-11T09:02:04.437Z,0.15
2022-10-11T09:05:15.796Z,0.30
2022-10-11T09:08:25.966Z,0.28
2022-10-11T09:11:39.891Z,0.20
2022-10-11T09:14:56.642Z,0.20
2022-10-11T09:18:22.733Z,0.20
2022-10-11T09:21:34.166Z,0.30
2022-10-11T09:28:09.044Z,0.80
2022-10-11T09:31:11.702Z,0.70
2022-10-11T09:34:15.180Z,0.50
2022-10-11T09:37:24.081Z,0.50
2022-10-11T09:40:38.125Z,0.60
2022-10-11T09:43:39.795Z,0.50
2022-10-11T09:46:53.834Z,0.32
2022-10-11T09:50:02.286Z,0.57
2022-10-11T09:53:05.758Z,0.68
2022-10-11T09:56:07.938Z,1.05
2022-10-11T09:59:23.820Z,1.00
2022-10-11T10:02:26.159Z,0.60
2022-10-11T10:05:30.589Z,0.77
2022-10-11T10:08:36.800Z,0.90
2022-10-11T10:11:38.618Z,0.50
2022-10-11T10:14:41.055Z,1.15
2022-10-11T10:17:49.830Z,0.73
2022-10-11T10:20:54.500Z,0.75
2022-10-11T10:23:59.250Z,0.50
2022-10-11T10:27:16.806Z,0.50
2022-10-11T10:30:19.287Z,0.68
2022-10-11T10:33:22.553Z,0.50
2022-10-11T10:36:29.045Z,0.50
2022-10-11T10:39:38.500Z,0.45
2022-10-11T10:42:40.827Z,0.70
2022-10-11T10:46:05.274Z,0.43
2022-10-11T10:52:58.113Z,0.20
2022-10-11T10:56:08.485Z,0.32
2022-10-11T10:59:43.483Z,0.40
2022-10-11T11:02:54.852Z,0.55
2022-10-11T11:06:03.215Z,0.30
2022-10-11T11:09:24.489Z,0.30
2022-10-11T11:12:41.950Z,0.60
2022-10-11T11:15:52.342Z,0.30
2022-10-11T11:19:06.161Z,0.30
2022-10-11T11:22:19.467Z,0.55
2022-10-11T11:25:29.507Z,0.22
2022-10-11T11:28:49.385Z,0.20
2022-10-11T11:32:07.059Z,0.30
2022-10-11T11:35:17.610Z,0.30
2022-10-11T11:38:29.508Z,0.20
2022-10-11T11:41:37.844Z,0.28
2022-10-11T11:44:43.168Z,0.30
2022-10-11T11:47:51.595Z,0.60
2022-10-11T11:51:01.004Z,0.30
2022-10-11T11:54:17.518Z,0.22
2022-10-11T11:57:34.459Z,0.35
2022-10-11T12:00:46.888Z,0.45
2022-10-11T12:03:52.162Z,0.30
2022-10-11T12:07:15.938Z,0.25
2022-10-11T12:10:30.293Z,0.20
2022-10-11T12:13:34.179Z,0.22
2022-10-11T12:17:11.353Z,0.30
2022-10-11T12:20:25.509Z,0.30
2022-10-11T12:23:41.851Z,0.50
2022-10-11T12:26:45.084Z,0.47
2022-10-11T12:29:49.192Z,0.30
2022-10-11T12:33:02.206Z,0.30
2022-10-11T12:36:30.545Z,0.20
2022-10-11T12:39:46.226Z,0.30
2022-10-11T12:43:11.429Z,0.40
2022-10-11T12:46:38.918Z,0.30
2022-10-11T12:49:51.160Z,0.30
2022-10-11T12:53:02.663Z,0.40
2022-10-11T12:59:17.813Z,0.43
2022-10-11T13:02:28.744Z,0.25
2022-10-11T13:05:35.397Z,0.20
2022-10-11T13:08:42.358Z,0.30
2022-10-11T13:11:48.869Z,0.30
2022-10-11T13:14:59.706Z,0.32
2022-10-11T13:18:02.515Z,0.60
2022-10-11T13:21:20.293Z,1.08
2022-10-11T13:24:34.658Z,0.65
2022-10-11T13:27:38.169Z,0.40
2022-10-11T13:30:45.431Z,0.50
2022-10-11T13:33:47.995Z,0.73
2022-10-11T13:36:56.391Z,0.73
2022-10-11T13:40:00.108Z,0.50
2022-10-11T13:43:06.104Z,0.90
2022-10-11T13:46:16.653Z,0.90
2022-10-11T13:49:28.995Z,0.90
2022-10-11T13:52:30.796Z,0.90
2022-10-11T13:55:35.487Z,0.70
2022-10-11T13:58:44.220Z,0.68
2022-10-11T14:01:46.831Z,0.60
2022-10-11T14:04:49.188Z,1.17
2022-10-11T14:07:51.374Z,1.02
2022-10-11T14:10:57.190Z,0.90
2022-10-11T14:13:59.326Z,0.80
2022-10-11T14:17:06.336Z,1.10
2022-10-11T14:20:16.437Z,1.23
2022-10-11T14:23:18.070Z,1.15
2022-10-11T14:26:21.724Z,1.08
2022-10-11T14:29:26.039Z,1.50
2022-10-11T14:32:35.546Z,1.00
2022-10-11T14:35:38.265Z,0.50
2022-10-11T14:38:41.007Z,0.65
2022-10-11T14:41:43.899Z,0.88
2022-10-11T14:44:45.417Z,0.70
2022-10-11T14:47:48.203Z,0.40
2022-10-11T14:50:52.060Z,0.60
2022-10-11T14:53:54.550Z,0.38
2022-10-11T14:57:06.029Z,0.47
2022-10-11T15:03:17.584Z,0.40
2022-10-11T15:06:23.721Z,0.40
2022-10-11T15:09:25.487Z,0.40
2022-10-11T15:12:27.519Z,0.32
2022-10-11T15:15:32.031Z,0.50
2022-10-11T15:18:33.942Z,0.40
2022-10-11T15:21:35.543Z,0.40
2022-10-11T15:24:38.183Z,0.50
2022-10-11T15:27:42.097Z,0.40
2022-10-11T15:30:45.150Z,0.30
2022-10-11T15:33:46.836Z,0.40
2022-10-11T15:36:49.202Z,0.60
2022-10-11T15:39:50.771Z,0.50
2022-10-11T15:42:54.659Z,0.47
2022-10-11T15:45:58.180Z,0.40
2022-10-11T15:49:05.902Z,0.47
2022-10-11T15:52:08.517Z,0.50
2022-10-11T15:55:11.134Z,0.45
2022-10-11T15:58:15.250Z,0.40
2022-10-11T16:01:19.080Z,0.40
2022-10-11T16:04:22.263Z,0.50
2022-10-11T16:07:23.721Z,0.30
2022-10-11T16:10:25.189Z,0.50
2022-10-11T16:13:28.140Z,0.30
2022-10-11T16:16:29.665Z,0.30
2022-10-11T16:19:31.127Z,0.25
2022-10-11T16:22:33.078Z,0.50
2022-10-11T16:25:34.708Z,0.47
2022-10-11T16:28:37.139Z,0.30
2022-10-11T16:31:38.612Z,0.20
2022-10-11T16:34:40.492Z,0.22
2022-10-11T16:37:41.995Z,0.30
2022-10-11T16:40:43.594Z,0.30
2022-10-11T16:43:49.354Z,0.30
2022-10-11T16:46:51.388Z,0.28
2022-10-11T16:49:52.896Z,0.30
2022-10-11T16:52:54.714Z,0.35
2022-10-11T16:55:56.287Z,0.28
2022-10-11T16:59:02.006Z,0.40
2022-10-11T17:02:04.488Z,0.38
2022-10-11T17:05:06.316Z,0.25
2022-10-11T17:08:07.775Z,0.32
2022-10-11T17:11:09.427Z,0.30
2022-10-11T17:14:12.425Z,0.50
2022-10-11T17:17:14.381Z,0.30
2022-10-11T17:20:15.920Z,0.52
2022-10-11T17:23:17.422Z,0.30
2022-10-11T17:26:25.613Z,0.40
2022-10-11T17:29:27.748Z,0.40
2022-10-11T17:32:29.305Z,0.25
2022-10-11T17:35:31.316Z,0.45
2022-10-11T17:38:33.268Z,0.30
2022-10-11T17:41:35.124Z,0.28
2022-10-11T17:44:37.241Z,0.30
2022-10-11T17:47:41.763Z,0.30
2022-10-11T17:50:46.949Z,0.30
2022-10-11T17:53:51.504Z,0.30
2022-10-11T17:56:53.881Z,0.30
2022-10-11T17:59:55.943Z,0.40
2022-10-11T18:02:57.481Z,0.47
2022-10-11T18:06:09.120Z,0.40
2022-10-11T18:09:11.941Z,0.30
2022-10-11T18:12:13.383Z,0.38
2022-10-11T18:15:15.433Z,0.40
2022-10-11T18:18:17.433Z,0.40
2022-10-11T18:21:19.713Z,0.20
2022-10-11T18:24:21.238Z,0.57
2022-10-11T18:27:22.734Z,0.43
2022-10-11T18:30:25.052Z,0.52
2022-10-11T18:33:26.467Z,0.50
2022-10-11T18:39:33.373Z,0.40
2022-10-11T18:45:37.846Z,0.43
2022-10-11T18:48:40.677Z,0.50
2022-10-11T18:51:42.329Z,0.40
2022-10-11T18:54:43.949Z,0.40
2022-10-11T18:57:45.643Z,0.30
2022-10-11T19:00:47.806Z,0.40
2022-10-11T19:03:51.785Z,0.50
2022-10-11T19:06:53.422Z,0.52
2022-10-11T19:09:54.815Z,0.73
2022-10-11T19:16:04.923Z,0.60
2022-10-11T19:19:08.579Z,0.60
2022-10-11T19:22:10.063Z,0.50
2022-10-11T19:25:11.501Z,0.50
2022-10-11T19:28:15.721Z,0.30
2022-10-11T19:31:17.984Z,0.40
2022-10-11T19:34:20.385Z,0.20
2022-10-11T19:37:22.117Z,0.50
2022-10-11T19:40:23.628Z,0.50
2022-10-11T19:43:24.999Z,0.40
2022-10-11T19:49:48.652Z,0.38
2022-10-11T19:55:51.484Z,0.30
2022-10-11T20:01:55.020Z,0.43
2022-10-11T20:04:56.598Z,0.35
2022-10-11T20:07:58.234Z,0.40
2022-10-11T20:11:01.691Z,0.40
2022-10-11T20:14:03.262Z,0.40
2022-10-11T20:17:05.343Z,0.60
2022-10-11T20:20:07.655Z,0.52
2022-10-11T20:23:09.098Z,0.40
2022-10-11T20:29:13.118Z,0.43
2022-10-11T20:32:15.170Z,0.40
2022-10-11T20:35:16.640Z,0.40
2022-10-11T20:38:18.405Z,0.40
2022-10-11T20:41:21.705Z,0.30
2022-10-11T20:44:23.288Z,0.50
2022-10-11T20:47:25.568Z,0.40
2022-10-11T20:50:26.956Z,0.70
2022-10-11T20:56:30.789Z,0.50
2022-10-11T20:59:32.363Z,0.60
2022-10-11T21:02:34.862Z,0.50
2022-10-11T21:05:36.504Z,0.38
2022-10-11T21:08:39.660Z,0.60
2022-10-11T21:11:41.157Z,0.60
2022-10-11T21:14:42.674Z,0.50
2022-10-11T21:17:46.221Z,0.50
2022-10-11T21:20:48.935Z,0.30
2022-10-11T21:23:54.137Z,0.60
2022-10-11T21:27:00.275Z,0.60
2022-10-11T21:30:02.621Z,0.52
2022-10-11T21:33:04.605Z,0.75
2022-10-11T21:36:08.011Z,0.50
2022-10-11T21:39:12.595Z,0.60
2022-10-11T21:42:14.080Z,0.50
2022-10-11T21:45:20.963Z,0.52
2022-10-11T21:48:23.062Z,0.63
2022-10-11T21:51:27.073Z,0.77
2022-10-11T21:54:28.613Z,0.50
2022-10-11T21:57:30.115Z,0.52
2022-10-11T22:00:34.656Z,0.55
2022-10-11T22:03:36.657Z,0.52
2022-10-11T22:06:38.650Z,0.63
2022-10-11T22:09:40.168Z,0.63
2022-10-11T22:12:41.551Z,0.68
2022-10-11T22:18:44.973Z,0.70
2022-10-11T22:21:46.375Z,0.65
2022-10-11T22:27:49.101Z,0.60
2022-10-11T22:33:54.251Z,0.60
2022-10-11T22:36:55.805Z,0.70
2022-10-11T22:39:57.431Z,0.60
2022-10-11T22:42:58.872Z,0.70
2022-10-11T22:49:02.851Z,0.88
2022-10-11T22:52:04.356Z,0.77
2022-10-11T22:55:06.452Z,0.70
2022-10-11T22:58:10.989Z,0.77
2022-10-11T23:01:17.717Z,0.80
2022-10-11T23:04:20.431Z,0.60
2022-10-11T23:07:21.962Z,0.55
2022-10-11T23:10:26.434Z,0.60
2022-10-11T23:13:27.967Z,0.50
2022-10-11T23:16:29.457Z,0.82
2022-10-11T23:19:31.477Z,0.70
2022-10-11T23:22:32.894Z,0.65
2022-10-11T23:28:36.739Z,0.50
2022-10-11T23:31:41.302Z,0.60
2022-10-11T23:34:43.264Z,0.60
2022-10-11T23:37:44.818Z,0.68
2022-10-11T23:40:46.392Z,0.60
2022-10-11T23:43:53.480Z,0.38
2022-10-11T23:46:56.361Z,0.50
2022-10-11T23:49:58.389Z,0.55
2022-10-11T23:52:59.751Z,0.47
2022-10-11T23:59:02.763Z,0.50
